Superfast Baleares — EBXD — position and weather

sailwx.info

Track history (hours):
 
Tides and Currents Weather Stations Pressure Air Temp Water Temp Dewpoint Dewpoint Depression Visibility Wind Speed Wind Dir Waves Ship Positions

Superfast Baleares

Last reported at 2016-Sep-24 12:33 UTC. Time now 2016-Sep-24 20:59 UTC.
Position N 51°60' E 004°02'.

Length 210 m; draft 6.2 m.

Type: Cargo ship. MMSI: 225405000.

Date/timePositionNaut miles runAvg speedWind from/ knotsBaromVisibWave heightAir tempDewpointWater temp
2016-Sep-24 12:33N 51°60' E 004°02'13 6.6
2016-Sep-24 10:33N 51°54' E 004°22'0 0.0
2016-Sep-24 09:33N 51°54' E 004°22'4 0.6
2016-Sep-24 03:33N 51°54' E 004°16'1414.6
2016-Sep-24 02:34N 52°00' E 003°54'10214.5
2016-Sep-23 19:33N 53°02' E 001°41'2410.6
2016-Sep-23 17:17N 53°16' E 001°08'4111.0
2016-Sep-23 13:33N 53°34' E 000°06'12 2.9
2016-Sep-23 09:33N 53°38' W 000°12'0 0.0
2016-Sep-23 06:34N 53°38' W 000°12'0 0.0
2016-Sep-23 04:34N 53°38' W 000°12'0 0.0
2016-Sep-23 03:33N 53°38' W 000°12'0 0.2
2016-Sep-23 02:33N 53°38' W 000°12'8 8.1
2016-Sep-23 01:33N 53°35' E 000°01'1312.7
2016-Sep-23 00:33N 53°33' E 000°22'5413.5
2016-Sep-22 20:33N 53°03' E 001°38'12115.1
2016-Sep-22 12:33N 51°54' E 004°20'1 0.1
2016-Sep-22 04:33N 51°54' E 004°21'1312.8
2016-Sep-22 03:33N 51°59' E 004°03'10513.2
2016-Sep-21 19:33N 53°01' E 001°42'78 7.8
2016-Sep-21 09:33N 53°38' W 000°12'0 0.0
2016-Sep-21 08:33N 53°38' W 000°12'0 0.0
2016-Sep-21 05:33N 53°38' W 000°12'0 0.0
2016-Sep-21 03:33N 53°38' W 000°12'1 1.0
2016-Sep-21 02:33N 53°38' W 000°10'18113.9
2016-Sep-20 13:34N 51°60' E 004°01'14 4.6
2016-Sep-20 10:33N 51°54' E 004°22'0 0.0
2016-Sep-20 08:33N 51°54' E 004°22'0 0.0
2016-Sep-20 07:33N 51°54' E 004°22'17 3.5
2016-Sep-20 02:33N 52°00' E 003°55'9012.7
2016-Sep-19 19:30N 52°54' E 001°57'1414.6
2016-Sep-19 18:33N 53°02' E 001°39'5513.1
2016-Sep-19 14:21N 53°32' E 000°22'911.7
2016-Sep-19 13:33N 53°34' E 000°06'10 9.7
2016-Sep-19 12:33N 53°38' W 000°09'2 2.0
2016-Sep-19 11:33N 53°38' W 000°12'0 0.0
2016-Sep-19 09:33N 53°38' W 000°12'0 0.0
2016-Sep-19 07:33N 53°38' W 000°12'0 0.0
2016-Sep-19 06:34N 53°38' W 000°12'0 0.0
2016-Sep-19 03:33N 53°38' W 000°12'0 0.0
2016-Sep-19 02:33N 53°38' W 000°12'0 0.0
2016-Sep-19 00:34N 53°38' W 000°12'17 3.5
2016-Sep-18 19:33N 53°33' E 000°16'6416.1
2016-Sep-18 15:34N 52°59' E 001°47'9716.2
2016-Sep-18 09:33N 52°02' E 003°56'38 3.4
2016-Sep-17 22:33N 51°28' E 003°31'1010.3
2016-Sep-17 21:33N 51°22' E 003°44'1111.3
2016-Sep-17 20:34N 51°23' E 004°02'10 5.4
2016-Sep-17 18:45N 51°21' E 004°17'5 1.0
2016-Sep-17 13:33N 51°17' E 004°23'0 0.0
2016-Sep-17 12:33N 51°17' E 004°23'0 0.0
2016-Sep-17 10:33N 51°17' E 004°23'0 0.0
2016-Sep-17 09:33N 51°17' E 004°23'0 0.0
2016-Sep-17 08:33N 51°17' E 004°23'0 0.0
2016-Sep-17 07:34N 51°17' E 004°23'2 0.9
2016-Sep-17 05:33N 51°17' E 004°20'1 1.1
2016-Sep-17 04:33N 51°17' E 004°19'14112.9
2016-Sep-16 17:33N 53°01' E 001°42'7715.4
2016-Sep-16 12:34N 53°38' W 000°11'1 0.3
2016-Sep-16 09:33N 53°38' W 000°12'0 0.0
2016-Sep-16 07:33N 53°38' W 000°12'0 0.0
2016-Sep-16 03:33N 53°38' W 000°12'0 0.1
2016-Sep-16 02:33N 53°38' W 000°12'14 7.1
2016-Sep-16 00:33N 53°33' E 000°11'2613.0
2016-Sep-15 22:30N 53°24' E 000°53'2216.4
2016-Sep-15 21:11N 53°11' E 001°22'1016.1
2016-Sep-15 20:33N 53°04' E 001°34'11914.4
2016-Sep-15 12:17N 51°55' E 004°14'5 6.8
2016-Sep-15 11:33N 51°54' E 004°22'0 0.0
2016-Sep-15 04:33N 51°54' E 004°22'6 6.2
2016-Sep-15 03:33N 51°56' E 004°12'2613.0
2016-Sep-15 01:33N 52°06' E 003°34'11813.1
2016-Sep-14 16:32N 53°20' E 001°01'3612.2
2016-Sep-14 13:34N 53°34' E 000°05'1110.5
2016-Sep-14 12:33N 53°38' W 000°12'  
Track history (hours):
 
Tides and Currents Weather Stations Pressure Air Temp Water Temp Dewpoint Dewpoint Depression Visibility Wind Speed Wind Dir Waves Ship Positions

Superfast Baleares

Last reported at 2016-Sep-24 12:33 UTC. Time now 2016-Sep-24 20:59 UTC.
Position N 51°60' E 004°02'.

Length 210 m; draft 6.2 m.

Type: Cargo ship. MMSI: 225405000.

Date/timePositionNaut miles runAvg speedWind from/ knotsBaromVisibWave heightAir tempDewpointWater temp
2016-Sep-24 12:33N 51°60' E 004°02'13 6.6
2016-Sep-24 10:33N 51°54' E 004°22'0 0.0
2016-Sep-24 09:33N 51°54' E 004°22'4 0.6
2016-Sep-24 03:33N 51°54' E 004°16'1414.6
2016-Sep-24 02:34N 52°00' E 003°54'10214.5
2016-Sep-23 19:33N 53°02' E 001°41'2410.6
2016-Sep-23 17:17N 53°16' E 001°08'4111.0
2016-Sep-23 13:33N 53°34' E 000°06'12 2.9
2016-Sep-23 09:33N 53°38' W 000°12'0 0.0
2016-Sep-23 06:34N 53°38' W 000°12'0 0.0
2016-Sep-23 04:34N 53°38' W 000°12'0 0.0
2016-Sep-23 03:33N 53°38' W 000°12'0 0.2
2016-Sep-23 02:33N 53°38' W 000°12'8 8.1
2016-Sep-23 01:33N 53°35' E 000°01'1312.7
2016-Sep-23 00:33N 53°33' E 000°22'5413.5
2016-Sep-22 20:33N 53°03' E 001°38'12115.1
2016-Sep-22 12:33N 51°54' E 004°20'1 0.1
2016-Sep-22 04:33N 51°54' E 004°21'1312.8
2016-Sep-22 03:33N 51°59' E 004°03'10513.2
2016-Sep-21 19:33N 53°01' E 001°42'78 7.8
2016-Sep-21 09:33N 53°38' W 000°12'0 0.0
2016-Sep-21 08:33N 53°38' W 000°12'0 0.0
2016-Sep-21 05:33N 53°38' W 000°12'0 0.0
2016-Sep-21 03:33N 53°38' W 000°12'1 1.0
2016-Sep-21 02:33N 53°38' W 000°10'18113.9
2016-Sep-20 13:34N 51°60' E 004°01'14 4.6
2016-Sep-20 10:33N 51°54' E 004°22'0 0.0
2016-Sep-20 08:33N 51°54' E 004°22'0 0.0
2016-Sep-20 07:33N 51°54' E 004°22'17 3.5
2016-Sep-20 02:33N 52°00' E 003°55'9012.7
2016-Sep-19 19:30N 52°54' E 001°57'1414.6
2016-Sep-19 18:33N 53°02' E 001°39'5513.1
2016-Sep-19 14:21N 53°32' E 000°22'911.7
2016-Sep-19 13:33N 53°34' E 000°06'10 9.7
2016-Sep-19 12:33N 53°38' W 000°09'2 2.0
2016-Sep-19 11:33N 53°38' W 000°12'0 0.0
2016-Sep-19 09:33N 53°38' W 000°12'0 0.0
2016-Sep-19 07:33N 53°38' W 000°12'0 0.0
2016-Sep-19 06:34N 53°38' W 000°12'0 0.0
2016-Sep-19 03:33N 53°38' W 000°12'0 0.0
2016-Sep-19 02:33N 53°38' W 000°12'0 0.0
2016-Sep-19 00:34N 53°38' W 000°12'17 3.5
2016-Sep-18 19:33N 53°33' E 000°16'6416.1
2016-Sep-18 15:34N 52°59' E 001°47'9716.2
2016-Sep-18 09:33N 52°02' E 003°56'38 3.4
2016-Sep-17 22:33N 51°28' E 003°31'1010.3
2016-Sep-17 21:33N 51°22' E 003°44'1111.3
2016-Sep-17 20:34N 51°23' E 004°02'10 5.4
2016-Sep-17 18:45N 51°21' E 004°17'5 1.0
2016-Sep-17 13:33N 51°17' E 004°23'0 0.0
2016-Sep-17 12:33N 51°17' E 004°23'0 0.0
2016-Sep-17 10:33N 51°17' E 004°23'0 0.0
2016-Sep-17 09:33N 51°17' E 004°23'0 0.0
2016-Sep-17 08:33N 51°17' E 004°23'0 0.0
2016-Sep-17 07:34N 51°17' E 004°23'2 0.9
2016-Sep-17 05:33N 51°17' E 004°20'1 1.1
2016-Sep-17 04:33N 51°17' E 004°19'14112.9
2016-Sep-16 17:33N 53°01' E 001°42'7715.4
2016-Sep-16 12:34N 53°38' W 000°11'1 0.3
2016-Sep-16 09:33N 53°38' W 000°12'0 0.0
2016-Sep-16 07:33N 53°38' W 000°12'0 0.0
2016-Sep-16 03:33N 53°38' W 000°12'0 0.1
2016-Sep-16 02:33N 53°38' W 000°12'14 7.1
2016-Sep-16 00:33N 53°33' E 000°11'2613.0
2016-Sep-15 22:30N 53°24' E 000°53'2216.4
2016-Sep-15 21:11N 53°11' E 001°22'1016.1
2016-Sep-15 20:33N 53°04' E 001°34'11914.4
2016-Sep-15 12:17N 51°55' E 004°14'5 6.8
2016-Sep-15 11:33N 51°54' E 004°22'0 0.0
2016-Sep-15 04:33N 51°54' E 004°22'6 6.2
2016-Sep-15 03:33N 51°56' E 004°12'2613.0
2016-Sep-15 01:33N 52°06' E 003°34'11813.1
2016-Sep-14 16:32N 53°20' E 001°01'3612.2
2016-Sep-14 13:34N 53°34' E 000°05'1110.5
2016-Sep-14 12:33N 53°38' W 000°12'  

Dump ship's entire track history